KBUR

Bob Hope Airport

Burbank, California, USA
METAR KBUR 210353Z 17006KT 10SM CLR 23/19 A2991 RMK AO2 SLP115 T02280194
Observed Flight Rules
Aug-21 @ 03:53 UTC (17 minutes ago) Visual Flight Rules
Wind Visibility Clouds
170° at 6 knots 10 miles
  • Clear skies
Temperatures Readings
Current 23°C / 73°F
Dewpoint 19°C / 66°F
Humidity 78%
Altimeter 29.91" Hg
Pressure 1011.5 hPa
Elevation 217
METAR KBUR 210353Z 17006KT 10SM CLR 23/19 A2991 RMK AO2 SLP115 T02280194
Observed Flight Rules
Aug-21 @ 03:53 UTC
(17 minutes ago)
VFR
Wind Visibility
170° at 6 knots 10 miles
Clouds
  • Clear skies
Temperature Dewpoint
23°C / 73°F 19°C / 66°F
Humidity Altimeter Pressure
78% 29.91" Hg 1011.5 hPa